Time;durP1;ratioP1;P1;durP2;ratioP2;P2;SDS_P1;SDS_P2;PMS_P1;PMS_P2;Temp;Humidity;BMP_temperature;BMP_pressure;BME280_temperature;BME280_humidity;BME280_pressure;Samples;Min_cycle;Max_cycle;Signal;HPM_P1;HPM_P2
2022/12/19 00:00:12;;;;;;;;;;;;;;;-1.24;100.00;101691.75;5047914;28;19963;-73
2022/12/19 00:02:37;;;;;;;;;;;;;;;-1.23;100.00;101691.78;5068021;28;20029;-73
2022/12/19 00:05:03;;;;;;;;;;;;;;;-1.21;100.00;101688.31;5067549;28;20359;-73
2022/12/19 00:07:28;;;;;;;;;;;;;;;-1.19;100.00;101689.22;5067149;28;20402;-72
2022/12/19 00:09:54;;;;;;;;;;;;;;;-1.18;100.00;101686.66;5034827;28;19979;-73
2022/12/19 00:12:19;;;;;;;;;;;;;;;-1.16;100.00;101686.66;5066952;28;19932;-73
2022/12/19 00:14:45;;;;;;;;;;;;;;;-1.16;100.00;101697.06;5065962;28;20547;-73
2022/12/19 00:17:11;;;;;;;;;;;;;;;-1.14;100.00;101695.38;5040676;28;19929;-72
2022/12/19 00:19:36;;;;;;;;;;;;;;;-1.13;100.00;101691.94;5066856;28;19974;-73
2022/12/19 00:22:01;;;;;;;;;;;;;;;-1.12;100.00;101691.97;5067455;28;19975;-73
2022/12/19 00:24:27;;;;;;;;;;;;;;;-1.10;100.00;101679.84;5066618;28;19932;-73
2022/12/19 00:26:52;;;;;;;;;;;;;;;-1.09;100.00;101683.34;5066521;28;20007;-73
2022/12/19 00:29:18;;;;;;;;;;;;;;;-1.07;100.00;101676.44;5066919;28;20015;-73
2022/12/19 00:31:43;;;;;;;;;;;;;;;-1.07;100.00;101666.03;5067014;28;19932;-73
2022/12/19 00:34:08;;;;;;;;;;;;;;;-1.05;100.00;101653.06;5045562;28;19940;-73
2022/12/19 00:36:34;;;;;;;;;;;;;;;-1.04;100.00;101644.41;5056770;28;19935;-73
2022/12/19 00:39:00;;;;;;;;;;;;;;;-1.04;100.00;101637.47;5056988;28;19975;-73
2022/12/19 00:41:26;;;;;;;;;;;;;;;-1.03;100.00;101623.63;5066284;28;19932;-73
2022/12/19 00:43:52;;;;;;;;;;;;;;;-1.02;100.00;101630.59;5066954;28;19929;-73
2022/12/19 00:46:18;;;;;;;;;;;;;;;-1.00;100.00;101628.88;5047417;28;19930;-73
2022/12/19 00:48:43;;;;;;;;;;;;;;;-0.99;100.00;101632.34;5047066;28;19928;-73
2022/12/19 00:51:10;;;;;;;;;;;;;;;-0.98;100.00;101626.31;5066831;28;20031;-73
2022/12/19 00:53:36;;;;;;;;;;;;;;;-0.98;100.00;101619.38;5047622;28;19924;-73
2022/12/19 00:56:02;;;;;;;;;;;;;;;-0.96;100.00;101622.00;5050846;28;20383;-73
2022/12/19 00:58:27;;;;;;;;;;;;;;;-0.96;100.00;101616.81;5047013;28;20151;-73
2022/12/19 01:00:53;;;;;;;;;;;;;;;-0.95;100.00;101613.34;5047195;28;19931;-73
2022/12/19 01:03:18;;;;;;;;;;;;;;;-0.94;100.00;101602.09;5065967;28;19929;-73
2022/12/19 01:05:44;;;;;;;;;;;;;;;-0.92;100.00;101592.63;5066488;28;20429;-73
2022/12/19 01:08:09;;;;;;;;;;;;;;;-0.92;100.00;101579.63;5066487;28;19936;-73
2022/12/19 01:10:34;;;;;;;;;;;;;;;-0.90;100.00;101590.91;5046118;28;20497;-73
2022/12/19 01:13:00;;;;;;;;;;;;;;;-0.87;100.00;101579.66;5066201;28;19924;-73
2022/12/19 01:15:25;;;;;;;;;;;;;;;-0.87;100.00;101579.66;5066277;28;20148;-73
2022/12/19 01:17:51;;;;;;;;;;;;;;;-0.86;100.00;101581.41;5065465;28;19929;-73
2022/12/19 01:20:17;;;;;;;;;;;;;;;-0.84;100.00;101571.91;5066325;28;19924;-73
2022/12/19 01:22:43;;;;;;;;;;;;;;;-0.83;100.00;101578.84;5050813;28;19935;-73
2022/12/19 01:25:08;;;;;;;;;;;;;;;-0.83;100.00;101578.84;5028983;28;20369;-73
2022/12/19 01:27:34;;;;;;;;;;;;;;;-0.82;100.00;101572.78;5055984;28;20331;-73
2022/12/19 01:29:59;;;;;;;;;;;;;;;-0.81;100.00;101574.56;5065958;28;19981;-73
2022/12/19 01:32:24;;;;;;;;;;;;;;;-0.81;100.00;101569.34;5065062;28;20045;-73
2022/12/19 01:34:50;;;;;;;;;;;;;;;-0.80;100.00;101555.50;5065577;28;19928;-73
2022/12/19 01:37:15;;;;;;;;;;;;;;;-0.80;100.00;101552.91;5065942;28;19939;-73
2022/12/19 01:39:41;;;;;;;;;;;;;;;-0.79;100.00;101554.63;5045723;28;19928;-73
2022/12/19 01:42:12;;;;;;;;;;;;;;;-0.78;100.00;101548.56;5046252;28;19975;-74
2022/12/19 01:44:38;;;;;;;;;;;;;;;-0.78;100.00;101535.56;5046382;28;19924;-73
2022/12/19 01:47:03;;;;;;;;;;;;;;;-0.76;100.00;101533.84;5065031;28;19994;-73
2022/12/19 01:49:30;;;;;;;;;;;;;;;-0.76;100.00;101517.41;5046123;28;20005;-73
2022/12/19 01:51:56;;;;;;;;;;;;;;;-0.76;100.00;101533.84;5046485;28;19931;-73
2022/12/19 01:54:24;;;;;;;;;;;;;;;-0.74;100.00;101536.50;5049206;28;20070;-74
2022/12/19 01:56:49;;;;;;;;;;;;;;;-0.74;100.00;101528.69;5046088;28;19932;-74
2022/12/19 01:59:16;;;;;;;;;;;;;;;-0.73;100.00;101530.44;5055444;28;19931;-73
2022/12/19 02:01:42;;;;;;;;;;;;;;;-0.73;100.00;101526.13;5054900;28;19928;-73
2022/12/19 02:04:07;;;;;;;;;;;;;;;-0.72;100.00;101520.06;5055167;28;19963;-73
2022/12/19 02:06:33;;;;;;;;;;;;;;;-0.69;100.00;101521.81;5045700;28;19973;-73
2022/12/19 02:08:59;;;;;;;;;;;;;;;-0.66;100.00;101510.59;5064793;28;19953;-74
2022/12/19 02:11:24;;;;;;;;;;;;;;;-0.65;100.00;101510.59;5054964;28;20353;-74
2022/12/19 02:13:49;;;;;;;;;;;;;;;-0.64;100.00;101504.56;5045824;28;20279;-73
2022/12/19 02:16:14;;;;;;;;;;;;;;;-0.61;100.00;101508.91;5064703;28;20545;-74
2022/12/19 02:18:47;;;;;;;;;;;;;;;-0.60;100.00;101506.31;5064907;28;20594;-74
2022/12/19 02:21:42;;;;;;;;;;;;;;;-0.58;100.00;101507.22;5045587;28;20008;-74
2022/12/19 02:24:26;;;;;;;;;;;;;;;-0.56;100.00;101518.50;5052142;28;19924;-74
2022/12/19 02:26:54;;;;;;;;;;;;;;;-0.55;100.00;101508.97;5065162;28;20442;-74
2022/12/19 02:29:22;;;;;;;;;;;;;;;-0.54;100.00;101505.53;5064590;28;19924;-74
2022/12/19 02:31:49;;;;;;;;;;;;;;;-0.52;100.00;101497.72;5064300;28;20031;-74
2022/12/19 02:34:23;;;;;;;;;;;;;;;-0.53;100.00;101491.66;5045876;28;20485;-74
2022/12/19 02:36:52;;;;;;;;;;;;;;;-0.50;100.00;101481.28;5064849;28;20012;-74
2022/12/19 02:39:22;;;;;;;;;;;;;;;-0.49;100.00;101475.22;5033371;28;19928;-74
2022/12/19 02:41:49;;;;;;;;;;;;;;;-0.47;100.00;101473.53;5045075;28;19963;-74
2022/12/19 02:44:21;;;;;;;;;;;;;;;-0.47;100.00;101473.53;5045209;28;20372;-74
2022/12/19 02:46:46;;;;;;;;;;;;;;;-0.46;100.00;101476.97;5045075;28;19925;-74
2022/12/19 02:49:12;;;;;;;;;;;;;;;-0.47;100.00;101455.31;5045102;28;19924;-74
2022/12/19 02:51:37;;;;;;;;;;;;;;;-0.47;100.00;101452.69;5045598;28;20197;-74
2022/12/19 02:54:02;;;;;;;;;;;;;;;-0.45;100.00;101444.88;5063935;28;19939;-74
2022/12/19 02:56:54;;;;;;;;;;;;;;;-0.45;100.00;101432.78;5064500;28;20437;-74
2022/12/19 02:59:22;;;;;;;;;;;;;;;-0.43;100.00;101441.44;5059364;28;19935;-75
2022/12/19 03:01:53;;;;;;;;;;;;;;;-0.42;100.00;101437.97;5063644;28;19924;-74
2022/12/19 03:04:37;;;;;;;;;;;;;;;-0.40;100.00;101439.75;5064093;28;19924;-74
2022/12/19 03:07:07;;;;;;;;;;;;;;;-0.39;100.00;101436.28;5044950;28;19924;-74
2022/12/19 03:09:36;;;;;;;;;;;;;;;-0.39;100.00;101436.28;5028197;28;19931;-74
2022/12/19 03:12:03;;;;;;;;;;;;;;;-0.37;100.00;101438.06;5064316;28;19924;-74
2022/12/19 03:14:29;;;;;;;;;;;;;;;-0.36;100.00;101452.81;5046496;28;20390;-74
2022/12/19 03:16:54;;;;;;;;;;;;;;;-0.33;100.00;101446.75;5054240;28;19928;-74
2022/12/19 03:19:19;;;;;;;;;;;;;;;-0.30;100.00;101446.78;5036906;28;19975;-74
2022/12/19 03:21:45;;;;;;;;;;;;;;;-0.31;100.00;101430.31;5064207;28;20021;-74
2022/12/19 03:24:11;;;;;;;;;;;;;;;-0.29;100.00;101438.09;5054251;28;20253;-74
2022/12/19 03:26:37;;;;;;;;;;;;;;;-0.28;100.00;101440.72;5053231;28;19929;-74
2022/12/19 03:29:02;;;;;;;;;;;;;;;-0.25;100.00;101436.41;5045403;28;19924;-74
2022/12/19 03:31:29;;;;;;;;;;;;;;;-0.24;100.00;101431.22;5063747;28;20298;-74
2022/12/19 03:33:55;;;;;;;;;;;;;;;-0.22;100.00;101419.09;5048524;28;19971;-74
2022/12/19 03:36:23;;;;;;;;;;;;;;;-0.19;100.00;101424.34;5044617;28;19928;-74
2022/12/19 03:38:48;;;;;;;;;;;;;;;-0.18;100.00;101420.88;5063823;28;19929;-74
2022/12/19 03:41:14;;;;;;;;;;;;;;;-0.18;100.00;101410.44;5044732;28;19935;-74
2022/12/19 03:43:40;;;;;;;;;;;;;;;-0.17;100.00;101407.00;5064714;28;19971;-74
2022/12/19 03:46:07;;;;;;;;;;;;;;;-0.15;100.00;101394.00;5063342;28;20038;-74
2022/12/19 03:48:36;;;;;;;;;;;;;;;-0.12;100.00;101387.94;5045023;28;19924;-74
2022/12/19 03:51:10;;;;;;;;;;;;;;;-0.12;100.00;101381.00;5048855;28;19931;-74
2022/12/19 03:53:55;;;;;;;;;;;;;;;-0.09;100.00;101382.75;5047759;28;19967;-74
2022/12/19 03:56:39;;;;;;;;;;;;;;;-0.07;100.00;101386.22;5049742;28;19928;-74
2022/12/19 03:59:15;;;;;;;;;;;;;;;-0.05;100.00;101381.91;5068020;28;19940;-74
2022/12/19 04:01:40;;;;;;;;;;;;;;;-0.03;100.00;101377.59;5057784;28;20018;-74
2022/12/19 04:04:06;;;;;;;;;;;;;;;-0.01;100.00;101374.13;5067855;28;19935;-74
2022/12/19 04:06:31;;;;;;;;;;;;;;;0.02;100.00;101367.19;5048227;28;19931;-74
2022/12/19 04:08:57;;;;;;;;;;;;;;;0.03;100.00;101369.81;5067180;28;19925;-74
2022/12/19 04:11:22;;;;;;;;;;;;;;;0.03;100.00;101372.44;5067452;28;21320;-74
2022/12/19 04:13:49;;;;;;;;;;;;;;;0.06;100.00;101367.22;5048414;28;19928;-74
2022/12/19 04:16:14;;;;;;;;;;;;;;;0.08;100.00;101370.72;5047914;28;19924;-74
2022/12/19 04:18:39;;;;;;;;;;;;;;;0.12;100.00;101356.84;5056989;28;19928;-74
2022/12/19 04:21:07;;;;;;;;;;;;;;;0.15;100.00;101360.34;5048064;28;19935;-74
2022/12/19 04:23:33;;;;;;;;;;;;;;;0.14;100.00;101351.66;5047777;28;19928;-74
2022/12/19 04:26:02;;;;;;;;;;;;;;;0.15;100.00;101340.38;5047758;28;19928;-74
2022/12/19 04:28:35;;;;;;;;;;;;;;;0.17;100.00;101343.00;5048092;28;20027;-74
2022/12/19 04:31:00;;;;;;;;;;;;;;;0.21;100.00;101337.81;5057709;28;20487;-74
2022/12/19 04:33:26;;;;;;;;;;;;;;;0.22;100.00;101338.69;5047912;28;19984;-74
2022/12/19 04:35:51;;;;;;;;;;;;;;;0.25;100.00;101343.91;5067238;28;19929;-74
2022/12/19 04:38:16;;;;;;;;;;;;;;;0.28;100.00;101345.66;5066519;28;20369;-74
2022/12/19 04:40:41;;;;;;;;;;;;;;;0.29;100.00;101345.69;5066698;28;19973;-74
2022/12/19 04:43:07;;;;;;;;;;;;;;;0.32;100.00;101339.63;5047865;28;19931;-74
2022/12/19 04:45:32;;;;;;;;;;;;;;;0.35;100.00;101329.19;5066423;28;19929;-74
2022/12/19 04:47:58;;;;;;;;;;;;;;;0.36;100.00;101324.00;5056816;28;20466;-74
2022/12/19 04:50:23;;;;;;;;;;;;;;;0.38;100.00;101327.47;5047622;28;19928;-74
2022/12/19 04:52:48;;;;;;;;;;;;;;;0.43;100.00;101318.81;5066483;28;19924;-74
2022/12/19 04:55:14;;;;;;;;;;;;;;;0.45;100.00;101310.16;5056908;28;19931;-74
2022/12/19 04:57:39;;;;;;;;;;;;;;;0.48;100.00;101307.53;5047229;28;19932;-74
2022/12/19 05:00:07;;;;;;;;;;;;;;;0.49;100.00;101311.88;5065392;28;19935;-74
2022/12/19 05:02:33;;;;;;;;;;;;;;;0.52;100.00;101318.84;5066734;28;19924;-74
2022/12/19 05:04:58;;;;;;;;;;;;;;;0.55;100.00;101305.84;5066454;28;19981;-74
2022/12/19 05:07:23;;;;;;;;;;;;;;;0.58;100.00;101297.13;5065716;28;19932;-74
2022/12/19 05:09:49;;;;;;;;;;;;;;;0.61;100.00;101289.34;5039591;28;19932;-74
2022/12/19 05:12:14;;;;;;;;;;;;;;;0.65;100.00;101293.72;5056740;28;20669;-74
2022/12/19 05:14:39;;;;;;;;;;;;;;;0.67;100.00;101291.97;5065480;28;19935;-74
2022/12/19 05:17:05;;;;;;;;;;;;;;;0.73;100.00;101292.00;5066126;28;19979;-74
2022/12/19 05:19:30;;;;;;;;;;;;;;;0.76;100.00;101280.72;5066077;28;19928;-74
2022/12/19 05:21:55;;;;;;;;;;;;;;;0.77;100.00;101280.69;5065866;28;21359;-74
2022/12/19 05:24:20;;;;;;;;;;;;;;;0.80;100.00;101274.63;5065728;28;20452;-74
2022/12/19 05:26:47;;;;;;;;;;;;;;;0.82;100.00;101285.94;5046934;28;19974;-74
2022/12/19 05:29:12;;;;;;;;;;;;;;;0.83;100.00;101282.47;5050512;28;20516;-74
2022/12/19 05:31:37;;;;;;;;;;;;;;;0.86;100.00;101277.25;5065645;28;19984;-74
2022/12/19 05:34:02;;;;;;;;;;;;;;;0.89;100.00;101279.00;5066035;28;20648;-74
2022/12/19 05:36:28;;;;;;;;;;;;;;;0.90;100.00;101280.72;5046481;28;19924;-74
2022/12/19 05:38:53;;;;;;;;;;;;;;;0.93;100.00;101275.53;5065490;28;19936;-74
2022/12/19 05:41:19;;;;;;;;;;;;;;;0.94;100.00;101274.66;5065586;28;20122;-74
2022/12/19 05:43:44;;;;;;;;;;;;;;;0.95;100.00;101265.97;5049707;28;19963;-74
2022/12/19 05:46:10;;;;;;;;;;;;;;;0.95;100.00;101265.97;5065469;28;20372;-74
2022/12/19 05:48:36;;;;;;;;;;;;;;;0.96;100.00;101270.31;5065680;28;19928;-74
2022/12/19 05:51:01;;;;;;;;;;;;;;;0.97;100.00;101260.75;5045996;28;20674;-74
2022/12/19 05:53:27;;;;;;;;;;;;;;;0.98;100.00;101260.75;5044494;28;19936;-74
2022/12/19 05:56:01;;;;;;;;;;;;;;;1.01;100.00;101265.09;5065104;28;19932;-74
2022/12/19 05:58:26;;;;;;;;;;;;;;;1.03;100.00;101268.59;5046188;28;19928;-74
2022/12/19 06:00:51;;;;;;;;;;;;;;;1.07;100.00;101267.72;5045404;28;21528;-74
2022/12/19 06:03:17;;;;;;;;;;;;;;;1.09;100.00;101260.75;5065523;28;19924;-74
2022/12/19 06:05:42;;;;;;;;;;;;;;;1.13;100.00;101259.91;5065345;28;20023;-74
2022/12/19 06:08:07;;;;;;;;;;;;;;;1.16;100.00;101251.19;5064921;28;20471;-75
2022/12/19 06:10:33;;;;;;;;;;;;;;;1.20;100.00;101252.97;5065263;28;19924;-75
2022/12/19 06:12:58;;;;;;;;;;;;;;;1.20;100.00;101243.38;5044062;28;19968;-75
2022/12/19 06:15:23;;;;;;;;;;;;;;;1.24;100.00;101259.91;5065039;28;19971;-75
2022/12/19 06:17:51;;;;;;;;;;;;;;;1.27;100.00;101262.53;5064932;28;19924;-74
2022/12/19 06:20:16;;;;;;;;;;;;;;;1.31;100.00;101263.38;5063746;28;19947;-75
2022/12/19 06:22:42;;;;;;;;;;;;;;;1.33;100.00;101251.19;5045233;28;19928;-75
2022/12/19 06:25:08;;;;;;;;;;;;;;;1.35;100.00;101244.22;5064609;28;19936;-75
2022/12/19 06:27:33;;;;;;;;;;;;;;;1.37;100.00;101245.13;5064875;28;19932;-75
2022/12/19 06:29:58;;;;;;;;;;;;;;;1.39;100.00;101235.53;5044755;28;20375;-75
2022/12/19 06:32:24;;;;;;;;;;;;;;;1.42;100.00;101232.91;5064473;28;20559;-75
2022/12/19 06:34:49;;;;;;;;;;;;;;;1.43;100.00;101229.47;5048070;28;19986;-75
2022/12/19 06:37:14;;;;;;;;;;;;;;;1.47;100.00;101223.34;5064271;28;19986;-76
2022/12/19 06:39:40;;;;;;;;;;;;;;;1.51;100.00;101223.38;5045581;28;20414;-75
2022/12/19 06:42:22;;;;;;;;;;;;;;;1.54;100.00;101218.13;5064843;28;19938;-75
2022/12/19 06:44:47;;;;;;;;;;;;;;;1.58;100.00;101220.72;5047550;28;19925;-75
2022/12/19 06:47:13;;;;;;;;;;;;;;;1.62;100.00;101217.25;5048743;28;19924;-75
2022/12/19 06:49:38;;;;;;;;;;;;;;;1.66;100.00;101223.31;5065123;28;19967;-75
2022/12/19 06:52:03;;;;;;;;;;;;;;;1.69;100.00;101228.53;5064412;28;19976;-75
2022/12/19 06:54:29;;;;;;;;;;;;;;;1.72;100.00;101238.09;5045103;28;19931;-75
2022/12/19 06:56:54;;;;;;;;;;;;;;;1.73;100.00;101225.03;5046816;28;19963;-75
2022/12/19 06:59:19;;;;;;;;;;;;;;;1.76;100.00;101225.03;5054473;28;19936;-75
2022/12/19 07:01:47;;;;;;;;;;;;;;;1.78;100.00;101217.19;5063189;28;20390;-75
2022/12/19 07:04:13;;;;;;;;;;;;;;;1.84;100.00;101226.75;5064314;28;20410;-75
2022/12/19 07:06:38;;;;;;;;;;;;;;;1.89;100.00;101235.44;5054847;28;19929;-75
2022/12/19 07:09:04;;;;;;;;;;;;;;;1.92;100.00;101237.19;5064227;28;19936;-75
2022/12/19 07:11:29;;;;;;;;;;;;;;;1.92;100.00;101235.44;5064424;28;19928;-76
2022/12/19 07:13:54;;;;;;;;;;;;;;;1.96;100.00;101231.94;5054972;28;20431;-75
2022/12/19 07:16:20;;;;;;;;;;;;;;;1.99;100.00;101223.22;5064924;28;19928;-75
2022/12/19 07:18:45;;;;;;;;;;;;;;;2.02;100.00;101221.47;5064325;28;19932;-75
2022/12/19 07:21:10;;;;;;;;;;;;;;;2.07;100.00;101223.19;5063456;28;19932;-75
2022/12/19 07:23:36;;;;;;;;;;;;;;;2.10;100.00;101226.66;5065368;28;19936;-74
2022/12/19 07:26:01;;;;;;;;;;;;;;;2.16;100.00;101228.38;5058157;28;19924;-74
2022/12/19 07:28:26;;;;;;;;;;;;;;;2.22;100.00;101230.13;5067713;28;19929;-74
2022/12/19 07:30:51;;;;;;;;;;;;;;;2.30;100.00;101221.34;5052748;28;20456;-74
2022/12/19 07:33:17;;;;;;;;;;;;;;;2.34;100.00;101229.19;5068051;28;21487;-74
2022/12/19 07:35:42;;;;;;;;;;;;;;;2.41;100.00;101230.88;5048343;28;19928;-75
2022/12/19 07:38:07;;;;;;;;;;;;;;;2.48;100.00;101226.47;5048947;28;19924;-75
2022/12/19 07:40:33;;;;;;;;;;;;;;;2.53;100.00;101214.25;5068020;28;19928;-75
2022/12/19 07:43:02;;;;;;;;;;;;;;;2.60;100.00;101225.56;5067027;28;19975;-74
2022/12/19 07:45:28;;;;;;;;;;;;;;;2.66;100.00;101234.22;5058056;28;21044;-75
2022/12/19 07:47:54;;;;;;;;;;;;;;;2.72;100.00;101222.84;5068460;28;19939;-75
2022/12/19 07:50:19;;;;;;;;;;;;;;;2.79;100.00;101228.91;5047357;28;19964;-75
2022/12/19 07:52:44;;;;;;;;;;;;;;;2.83;100.00;101235.88;5057510;28;19933;-75
2022/12/19 07:55:09;;;;;;;;;;;;;;;2.89;100.00;101240.19;5047969;28;19940;-75
2022/12/19 07:57:35;;;;;;;;;;;;;;;2.94;100.00;101233.19;5067056;28;19933;-72
2022/12/19 08:00:00;;;;;;;;;;;;;;;2.98;100.00;101241.00;5067700;28;19936;-72
2022/12/19 08:02:25;;;;;;;;;;;;;;;3.02;100.00;101239.22;5067304;28;20483;-74
2022/12/19 08:04:51;;;;;;;;;;;;;;;3.06;100.00;101237.44;5066991;28;19932;-73
2022/12/19 08:07:16;;;;;;;;;;;;;;;3.10;100.00;101232.16;5067589;28;19932;-73
2022/12/19 08:09:41;;;;;;;;;;;;;;;3.15;100.00;101229.50;5067661;28;19928;-73
2022/12/19 08:12:07;;;;;;;;;;;;;;;3.20;100.00;101230.34;5047920;28;20334;-73
2022/12/19 08:14:32;;;;;;;;;;;;;;;3.21;100.00;101234.69;5067612;28;19962;-73
2022/12/19 08:16:57;;;;;;;;;;;;;;;3.26;100.00;101226.81;5067331;28;20440;-73
2022/12/19 08:19:23;;;;;;;;;;;;;;;3.30;100.00;101231.13;5066757;28;20286;-74
2022/12/19 08:21:48;;;;;;;;;;;;;;;3.34;100.00;101229.34;5067326;28;20030;-73
2022/12/19 08:24:13;;;;;;;;;;;;;;;3.35;100.00;101221.50;5066968;28;19937;-73
2022/12/19 08:26:39;;;;;;;;;;;;;;;3.38;100.00;101231.94;5067146;28;20858;-72
2022/12/19 08:29:05;;;;;;;;;;;;;;;3.43;100.00;101233.66;5066872;28;20421;-72
2022/12/19 08:31:31;;;;;;;;;;;;;;;3.44;100.00;101236.25;5047577;28;21538;-72
2022/12/19 08:33:56;;;;;;;;;;;;;;;3.48;100.00;101229.25;5047657;28;20021;-73
2022/12/19 08:36:21;;;;;;;;;;;;;;;3.52;100.00;101233.53;5046124;28;19959;-72
2022/12/19 08:38:47;;;;;;;;;;;;;;;3.55;100.00;101233.53;5047379;28;20052;-73
2022/12/19 08:41:13;;;;;;;;;;;;;;;3.56;100.00;101237.88;5066871;28;20307;-73
2022/12/19 08:43:39;;;;;;;;;;;;;;;3.58;100.00;101230.88;5056673;28;19952;-73
2022/12/19 08:46:05;;;;;;;;;;;;;;;3.62;100.00;101237.81;5056652;28;19924;-73
2022/12/19 08:48:30;;;;;;;;;;;;;;;3.63;100.00;101238.69;5056689;28;19936;-73
2022/12/19 08:50:56;;;;;;;;;;;;;;;3.65;100.00;101232.53;5066541;28;20404;-73
2022/12/19 08:53:22;;;;;;;;;;;;;;;3.66;100.00;101234.28;5050682;28;19978;-73
2022/12/19 08:55:54;;;;;;;;;;;;;;;3.69;100.00;101233.38;5046793;28;19928;-73
2022/12/19 08:58:19;;;;;;;;;;;;;;;3.72;100.00;101233.38;5032367;28;19939;-73
2022/12/19 09:00:45;;;;;;;;;;;;;;;3.75;100.00;101245.53;5062069;28;19928;-73
2022/12/19 09:03:10;;;;;;;;;;;;;;;3.78;100.00;101248.13;5061260;28;20025;-73
2022/12/19 09:05:35;;;;;;;;;;;;;;;3.82;100.00;101248.97;5043975;28;20651;-73
2022/12/19 09:08:01;;;;;;;;;;;;;;;3.84;100.00;101250.69;5062117;28;20031;-73
2022/12/19 09:10:26;;;;;;;;;;;;;;;3.87;100.00;101244.56;5041404;28;19928;-73
2022/12/19 09:12:52;;;;;;;;;;;;;;;3.90;100.00;101245.38;5060241;28;19928;-73
2022/12/19 09:15:17;;;;;;;;;;;;;;;3.92;100.00;101246.22;5062329;28;19931;-73
2022/12/19 09:17:42;;;;;;;;;;;;;;;3.93;100.00;101245.34;5062765;28;20653;-73
2022/12/19 09:20:09;;;;;;;;;;;;;;;3.98;100.00;101241.81;5039866;28;19932;-73
2022/12/19 09:22:35;;;;;;;;;;;;;;;4.00;100.00;101246.16;5061302;28;20632;-73
2022/12/19 09:25:00;;;;;;;;;;;;;;;4.02;100.00;101236.50;5062609;28;19936;-73
2022/12/19 09:27:25;;;;;;;;;;;;;;;4.05;100.00;101248.72;5042316;28;19925;-73
2022/12/19 09:29:51;;;;;;;;;;;;;;;4.07;100.00;101244.31;5060845;28;19932;-74
2022/12/19 09:32:16;;;;;;;;;;;;;;;4.12;100.00;101255.63;5062410;28;19932;-74
2022/12/19 09:34:42;;;;;;;;;;;;;;;4.16;100.00;101253.81;5061743;28;19932;-73
2022/12/19 09:37:08;;;;;;;;;;;;;;;4.18;100.00;101255.53;5042511;28;19995;-73
2022/12/19 09:39:34;;;;;;;;;;;;;;;4.21;100.00;101252.03;5061985;28;20267;-74
2022/12/19 09:42:03;;;;;;;;;;;;;;;4.26;100.00;101247.59;5059497;28;19932;-73
2022/12/19 09:44:48;;;;;;;;;;;;;;;4.29;100.00;101250.16;5041563;28;20015;-74
2022/12/19 09:47:15;;;;;;;;;;;;;;;4.34;100.00;101252.72;5060623;28;20086;-73
2022/12/19 09:49:42;;;;;;;;;;;;;;;4.38;100.00;101254.44;5042784;28;19931;-73
2022/12/19 09:52:13;;;;;;;;;;;;;;;4.42;100.00;101250.84;5040304;28;20461;-73
2022/12/19 09:54:57;;;;;;;;;;;;;;;4.49;100.00;101252.50;5059686;28;19968;-74
2022/12/19 09:57:29;;;;;;;;;;;;;;;4.54;100.00;101260.34;5058707;28;19940;-73
2022/12/19 10:00:27;;;;;;;;;;;;;;;4.61;100.00;101261.09;5060200;28;19928;-73
2022/12/19 10:02:56;;;;;;;;;;;;;;;4.66;100.00;101266.28;5021114;28;20070;-73
2022/12/19 10:05:27;;;;;;;;;;;;;;;4.71;100.00;101259.22;5048676;28;19935;-73
2022/12/19 10:07:52;;;;;;;;;;;;;;;4.81;100.00;101258.22;5059955;28;20022;-73
2022/12/19 10:10:23;;;;;;;;;;;;;;;4.87;100.00;101262.50;5039553;28;21496;-74
2022/12/19 10:12:55;;;;;;;;;;;;;;;4.89;100.00;101260.72;5039396;28;20344;-74
2022/12/19 10:15:36;;;;;;;;;;;;;;;4.93;100.00;101256.28;5041267;28;19978;-73
2022/12/19 10:18:20;;;;;;;;;;;;;;;5.03;100.00;101256.13;5060463;28;19924;-73
2022/12/19 10:20:59;;;;;;;;;;;;;;;5.10;100.00;101267.41;5061008;28;19935;-72
2022/12/19 10:23:37;;;;;;;;;;;;;;;5.20;100.00;101256.75;5060242;28;20406;-73
2022/12/19 10:26:10;;;;;;;;;;;;;;;5.25;100.00;101261.03;5060724;28;19963;-73
2022/12/19 10:28:44;;;;;;;;;;;;;;;5.28;100.00;101262.72;5039722;28;19932;-73
2022/12/19 10:31:20;;;;;;;;;;;;;;;5.34;100.00;101256.53;5059498;28;20434;-73
2022/12/19 10:33:48;;;;;;;;;;;;;;;5.38;100.00;101264.31;5037150;28;19924;-76
2022/12/19 10:36:14;;;;;;;;;;;;;;;5.43;100.00;101256.34;5060400;28;19928;-73
2022/12/19 10:38:39;;;;;;;;;;;;;;;5.46;100.00;101247.56;5049304;28;19925;-73
2022/12/19 10:41:11;;;;;;;;;;;;;;;5.51;100.00;101250.97;5058148;28;19961;-73
2022/12/19 10:43:55;;;;;;;;;;;;;;;5.55;100.00;101243.00;5031498;28;19928;-73
2022/12/19 10:46:39;;;;;;;;;;;;;;;5.60;100.00;101242.06;5040151;28;19924;-73
2022/12/19 10:49:12;;;;;;;;;;;;;;;5.65;100.00;101245.47;5055711;28;19920;-74
2022/12/19 10:51:37;;;;;;;;;;;;;;;5.69;100.00;101244.53;5060464;28;19982;-73
2022/12/19 10:54:02;;;;;;;;;;;;;;;5.73;100.00;101248.84;5060399;28;20043;-74
2022/12/19 10:56:29;;;;;;;;;;;;;;;5.74;100.00;101244.44;5058560;28;19958;-73
2022/12/19 10:58:58;;;;;;;;;;;;;;;5.74;100.00;101258.44;5038538;28;20379;-73
2022/12/19 11:01:27;;;;;;;;;;;;;;;5.75;100.00;101260.16;5058224;28;20413;-73
2022/12/19 11:04:11;;;;;;;;;;;;;;;5.78;100.00;101257.47;5032190;28;19928;-73
2022/12/19 11:06:36;;;;;;;;;;;;;;;5.80;100.00;101255.69;5056461;28;20678;-73
2022/12/19 11:09:20;;;;;;;;;;;;;;;5.82;100.00;101243.41;5053350;28;20579;-73
2022/12/19 11:11:46;;;;;;;;;;;;;;;5.85;100.00;101238.06;5057883;28;21985;-73
2022/12/19 11:14:22;;;;;;;;;;;;;;;5.90;100.00;101232.75;5054644;28;19935;-73
2022/12/19 11:16:47;;;;;;;;;;;;;;;5.95;100.00;101222.13;5055797;28;20670;-74
2022/12/19 11:19:20;;;;;;;;;;;;;;;5.99;100.00;101229.03;5056172;28;20296;-74
2022/12/19 11:21:45;;;;;;;;;;;;;;;6.01;100.00;101226.38;5040848;28;21394;-73
2022/12/19 11:24:12;;;;;;;;;;;;;;;6.01;100.00;101222.00;5026145;28;19928;-74
2022/12/19 11:26:41;;;;;;;;;;;;;;;6.04;100.00;101227.22;5025973;28;20498;-74
2022/12/19 11:29:16;;;;;;;;;;;;;;;6.05;100.00;101222.84;5056569;28;19962;-73
2022/12/19 11:31:42;;;;;;;;;;;;;;;6.09;100.00;101225.38;5054967;28;20394;-74
2022/12/19 11:34:15;;;;;;;;;;;;;;;6.13;100.00;101226.19;5040278;28;19928;-74
2022/12/19 11:36:43;;;;;;;;;;;;;;;6.15;100.00;101223.53;5054976;28;19928;-74
2022/12/19 11:39:11;;;;;;;;;;;;;;;6.16;100.00;101214.75;5039504;28;19935;-74
2022/12/19 11:41:41;;;;;;;;;;;;;;;6.19;100.00;101223.44;5057031;28;19963;-74
2022/12/19 11:44:17;;;;;;;;;;;;;;;6.19;100.00;101219.91;5057528;28;20455;-74
2022/12/19 11:46:48;;;;;;;;;;;;;;;6.21;100.00;101228.66;5038405;28;20383;-75
2022/12/19 11:49:31;;;;;;;;;;;;;;;6.20;100.00;101217.25;5040326;28;19924;-75
2022/12/19 11:51:58;;;;;;;;;;;;;;;6.24;100.00;101223.31;5035548;28;20842;-74
2022/12/19 11:54:25;;;;;;;;;;;;;;;6.24;100.00;101224.19;5008072;28;20395;-75
2022/12/19 11:56:50;;;;;;;;;;;;;;;6.25;100.00;101209.28;5035630;28;20304;-74
2022/12/19 11:59:20;;;;;;;;;;;;;;;6.27;100.00;101217.13;5055936;28;19935;-74
2022/12/19 12:01:57;;;;;;;;;;;;;;;6.28;100.00;101210.97;5053670;28;20464;-73
2022/12/19 12:04:35;;;;;;;;;;;;;;;6.24;100.00;101213.69;5051576;28;19993;-73
2022/12/19 12:07:00;;;;;;;;;;;;;;;6.24;100.00;101212.81;5056824;28;19928;-74
2022/12/19 12:10:01;;;;;;;;;;;;;;;6.25;100.00;101204.00;5046334;28;20487;-74
2022/12/19 12:12:37;;;;;;;;;;;;;;;6.27;100.00;101199.59;4988156;28;19925;-74
2022/12/19 12:15:22;;;;;;;;;;;;;;;6.27;100.00;101199.59;5033233;28;20483;-73
2022/12/19 12:17:57;;;;;;;;;;;;;;;6.29;100.00;101204.81;5052495;28;19963;-74
2022/12/19 12:20:26;;;;;;;;;;;;;;;6.30;100.00;101202.16;5064274;28;19924;-73
2022/12/19 12:22:51;;;;;;;;;;;;;;;6.33;100.00;101202.06;5057393;28;19928;-73
2022/12/19 12:25:17;;;;;;;;;;;;;;;6.35;100.00;101205.56;5059710;28;19973;-74
2022/12/19 12:27:42;;;;;;;;;;;;;;;6.37;100.00;101194.97;5042011;28;20046;-74
2022/12/19 12:30:11;;;;;;;;;;;;;;;6.37;100.00;101195.84;5061196;28;19928;-73
2022/12/19 12:32:39;;;;;;;;;;;;;;;6.37;100.00;101202.88;5044066;28;20207;-74
2022/12/19 12:35:05;;;;;;;;;;;;;;;6.37;100.00;101195.84;5058608;28;19971;-74